Time;durP1;ratioP1;P1;durP2;ratioP2;P2;SDS_P1;SDS_P2;PMS_P1;PMS_P2;Temp;Humidity;BMP_temperature;BMP_pressure;BME280_temperature;BME280_humidity;BME280_pressure;Samples;Min_cycle;Max_cycle;Signal;HPM_P1;HPM_P2
2023/06/27 00:01:39;;;;;;;11.9;9;;;;;;;17.33;73.72;;;;;
2023/06/27 00:11:36;;;;;;;11.9;9;;;;;;;17.39;72.34;;;;;
2023/06/27 00:22:40;;;;;;;11.9;9;;;;;;;17.8;73.61;;;;;
2023/06/27 00:32:36;;;;;;;11.9;8.2;;;;;;;17.85;74.41;;;;;
2023/06/27 00:42:35;;;;;;;11.9;8.2;;;;;;;17.89;77.36;;;;;
2023/06/27 00:53:35;;;;;;;11.9;8.2;;;;;;;17.92;80.66;;;;;
2023/06/27 01:03:35;;;;;;;15.5;8;;;;;;;17.65;81.23;;;;;
2023/06/27 01:14:35;;;;;;;15.5;8;;;;;;;17.48;82.91;;;;;
2023/06/27 01:24:36;;;;;;;15.5;8;;;;;;;17.26;84.99;;;;;
2023/06/27 01:34:35;;;;;;;11;8.1;;;;;;;17.06;87.87;;;;;
2023/06/27 01:44:35;;;;;;;11;8.1;;;;;;;17.31;87.45;;;;;
2023/06/27 01:54:35;;;;;;;11;8.1;;;;;;;17.38;87.68;;;;;
2023/06/27 02:05:35;;;;;;;10.6;8.2;;;;;;;17.17;88.65;;;;;
2023/06/27 02:16:35;;;;;;;10.6;8.2;;;;;;;17.01;89.31;;;;;
2023/06/27 02:27:35;;;;;;;10.6;8.2;;;;;;;16.96;89.85;;;;;
2023/06/27 02:38:35;;;;;;;10.3;7.7;;;;;;;16.86;90.43;;;;;
2023/06/27 02:48:35;;;;;;;10.3;7.7;;;;;;;16.84;90.58;;;;;
2023/06/27 02:59:35;;;;;;;9.8;7.4;;;;;;;16.83;90.66;;;;;
2023/06/27 03:09:36;;;;;;;9.8;7.4;;;;;;;16.81;90.94;;;;;
2023/06/27 03:19:36;;;;;;;9.8;7.4;;;;;;;16.79;90.94;;;;;
2023/06/27 03:29:35;;;;;;;8.7;6.4;;;;;;;16.88;90.79;;;;;
2023/06/27 03:39:35;;;;;;;8.7;6.4;;;;;;;17.07;90.72;;;;;
2023/06/27 03:50:36;;;;;;;8.7;6.4;;;;;;;17.49;89.64;;;;;
2023/06/27 04:01:37;;;;;;;9;6.2;;;;;;;17.78;88.82;;;;;
2023/06/27 04:11:35;;;;;;;9;6.2;;;;;;;17.88;88.81;;;;;
2023/06/27 04:22:35;;;;;;;9;6.2;;;;;;;17.98;88.53;;;;;
2023/06/27 04:32:38;;;;;;;9.4;6.9;;;;;;;18.18;88.49;;;;;
2023/06/27 04:42:35;;;;;;;9.4;6.9;;;;;;;18.38;87.67;;;;;
2023/06/27 04:52:35;;;;;;;9.4;6.9;;;;;;;18.68;86.92;;;;;
2023/06/27 05:03:37;;;;;;;10.6;6.6;;;;;;;19.06;86.38;;;;;
2023/06/27 05:14:35;;;;;;;10.6;6.6;;;;;;;19.3;85.64;;;;;
2023/06/27 05:24:35;;;;;;;10.6;6.6;;;;;;;19.11;86.19;;;;;
2023/06/27 05:35:35;;;;;;;9.8;5.3;;;;;;;19.29;85.78;;;;;
2023/06/27 05:45:35;;;;;;;9.8;5.3;;;;;;;19.07;86.97;;;;;
2023/06/27 05:56:35;;;;;;;9.8;5.3;;;;;;;19.18;87.15;;;;;
2023/06/27 06:06:38;;;;;;;12.2;8;;;;;;;19.2;87.16;;;;;
2023/06/27 06:17:35;;;;;;;12.2;8;;;;;;;18.61;88.18;;;;;
2023/06/27 06:28:36;;;;;;;12.2;8;;;;;;;18.41;88.55;;;;;
2023/06/27 06:39:35;;;;;;;12.6;7.2;;;;;;;18.41;85.84;;;;;
2023/06/27 06:49:35;;;;;;;12.6;7.2;;;;;;;18.29;85.68;;;;;
2023/06/27 06:59:35;;;;;;;9.4;5.7;;;;;;;18.23;83.75;;;;;
2023/06/27 07:09:35;;;;;;;9.4;5.7;;;;;;;18.35;82.13;;;;;
2023/06/27 07:20:35;;;;;;;9.4;5.7;;;;;;;18.43;79.57;;;;;
2023/06/27 07:31:35;;;;;;;8.5;5.3;;;;;;;18.56;77.51;;;;;
2023/06/27 07:41:35;;;;;;;8.5;5.3;;;;;;;18.91;77.99;;;;;
2023/06/27 07:52:35;;;;;;;8.5;5.3;;;;;;;19.49;75.64;;;;;
2023/06/27 08:02:35;;;;;;;10.3;5;;;;;;;19.45;75.77;;;;;
2023/06/27 08:12:35;;;;;;;10.3;5;;;;;;;19.85;75.47;;;;;
2023/06/27 08:22:35;;;;;;;10.3;5;;;;;;;19.72;74.46;;;;;
2023/06/27 08:33:36;;;;;;;13.6;5.4;;;;;;;19.84;74.9;;;;;
2023/06/27 08:44:35;;;;;;;13.6;5.4;;;;;;;20.39;71.01;;;;;
2023/06/27 08:55:35;;;;;;;13.6;5.4;;;;;;;20.36;70.57;;;;;
2023/06/27 09:06:35;;;;;;;8.4;5.1;;;;;;;20.47;69.35;;;;;
2023/06/27 09:16:35;;;;;;;8.4;5.1;;;;;;;20.87;69.15;;;;;
2023/06/27 09:27:35;;;;;;;8.4;5.1;;;;;;;20.42;71.29;;;;;
2023/06/27 09:38:36;;;;;;;9.5;6.2;;;;;;;20.1;72.89;;;;;
2023/06/27 09:48:35;;;;;;;9.5;6.2;;;;;;;20.27;70.52;;;;;
2023/06/27 09:59:35;;;;;;;8.8;5.9;;;;;;;20.28;65.49;;;;;
2023/06/27 10:09:35;;;;;;;8.8;5.9;;;;;;;20.91;64.93;;;;;
2023/06/27 10:19:36;;;;;;;8.8;5.9;;;;;;;21.26;66.43;;;;;
2023/06/27 10:30:35;;;;;;;11.2;6.2;;;;;;;21.83;61.51;;;;;
2023/06/27 10:40:35;;;;;;;11.2;6.2;;;;;;;21.82;60.49;;;;;
2023/06/27 10:50:37;;;;;;;11.2;6.2;;;;;;;22.37;57.28;;;;;
2023/06/27 11:01:35;;;;;;;8.6;4.7;;;;;;;21.53;60.33;;;;;
2023/06/27 11:12:36;;;;;;;8.6;4.7;;;;;;;21.52;60.88;;;;;
2023/06/27 11:22:35;;;;;;;8.6;4.7;;;;;;;21.87;58.08;;;;;
2023/06/27 11:32:36;;;;;;;7.7;4.2;;;;;;;22.16;57.25;;;;;
2023/06/27 11:42:36;;;;;;;7.7;4.2;;;;;;;21.83;57.41;;;;;
2023/06/27 11:52:36;;;;;;;7.7;4.2;;;;;;;21.82;58.12;;;;;
2023/06/27 12:03:36;;;;;;;7.7;4.3;;;;;;;22.09;56.46;;;;;
2023/06/27 12:14:36;;;;;;;7.7;4.3;;;;;;;22.37;51.91;;;;;
2023/06/27 12:24:36;;;;;;;7.7;4.3;;;;;;;23.18;50.43;;;;;
2023/06/27 12:34:36;;;;;;;8.1;3.9;;;;;;;23.28;48.44;;;;;
2023/06/27 12:44:36;;;;;;;8.1;3.9;;;;;;;23.25;44.16;;;;;
2023/06/27 12:55:36;;;;;;;8.1;3.9;;;;;;;23.03;42.2;;;;;
2023/06/27 13:05:36;;;;;;;6.5;2.1;;;;;;;23.08;41.56;;;;;
2023/06/27 13:16:36;;;;;;;6.5;2.1;;;;;;;22.46;42.5;;;;;
2023/06/27 13:26:36;;;;;;;6.5;2.1;;;;;;;23.1;45.02;;;;;
2023/06/27 13:37:36;;;;;;;5.2;2.4;;;;;;;22.49;46.09;;;;;
2023/06/27 13:47:36;;;;;;;5.2;2.4;;;;;;;22.38;46.4;;;;;
2023/06/27 13:58:36;;;;;;;5.2;2.4;;;;;;;22.59;47.07;;;;;
2023/06/27 14:08:36;;;;;;;5.4;2.3;;;;;;;22.64;44.17;;;;;
2023/06/27 14:18:36;;;;;;;5.4;2.3;;;;;;;23.32;45.03;;;;;
2023/06/27 14:28:36;;;;;;;5.4;2.3;;;;;;;23.44;45.17;;;;;
2023/06/27 14:39:36;;;;;;;5;2.7;;;;;;;23.65;45.34;;;;;
2023/06/27 14:49:36;;;;;;;5;2.7;;;;;;;24.44;43.39;;;;;
2023/06/27 14:59:36;;;;;;;7.7;3.1;;;;;;;23.3;44.56;;;;;
2023/06/27 15:10:38;;;;;;;7.7;3.1;;;;;;;21.71;44.4;;;;;
2023/06/27 15:21:38;;;;;;;7.7;3.1;;;;;;;23.09;43.2;;;;;
2023/06/27 15:32:36;;;;;;;5.8;2;;;;;;;24.66;38.69;;;;;
2023/06/27 15:42:36;;;;;;;5.8;2;;;;;;;26.11;36.71;;;;;
2023/06/27 15:52:36;;;;;;;5.8;2;;;;;;;27.21;33.53;;;;;
2023/06/27 16:03:36;;;;;;;4.8;2.3;;;;;;;26.9;34.2;;;;;
2023/06/27 16:13:36;;;;;;;4.8;2.3;;;;;;;26.42;35.4;;;;;
2023/06/27 16:23:36;;;;;;;4.8;2.3;;;;;;;26.64;35.08;;;;;
2023/06/27 16:34:38;;;;;;;3.9;1.8;;;;;;;26.5;34.2;;;;;
2023/06/27 16:45:36;;;;;;;3.9;1.8;;;;;;;26.97;33.13;;;;;
2023/06/27 16:55:36;;;;;;;3.9;1.8;;;;;;;26.5;32.95;;;;;
2023/06/27 17:05:36;;;;;;;7.8;2.3;;;;;;;25.98;33.78;;;;;
2023/06/27 17:15:36;;;;;;;7.8;2.3;;;;;;;22.62;38.15;;;;;
2023/06/27 17:26:36;;;;;;;7.8;2.3;;;;;;;22.17;39.9;;;;;
2023/06/27 17:37:36;;;;;;;5.3;2.3;;;;;;;21.91;41.15;;;;;
2023/06/27 17:47:37;;;;;;;5.3;2.3;;;;;;;22.75;41.31;;;;;
2023/06/27 17:58:36;;;;;;;5.3;2.3;;;;;;;23.61;40.19;;;;;
2023/06/27 18:08:36;;;;;;;6.9;2.5;;;;;;;21.75;42.8;;;;;
2023/06/27 18:18:36;;;;;;;6.9;2.5;;;;;;;19.84;45.67;;;;;
2023/06/27 18:28:36;;;;;;;6.9;2.5;;;;;;;19.06;47.19;;;;;
2023/06/27 18:38:39;;;;;;;4.7;2.1;;;;;;;18.32;49.31;;;;;
2023/06/27 18:49:36;;;;;;;4.7;2.1;;;;;;;17.75;51.92;;;;;
2023/06/27 18:59:36;;;;;;;4.7;2;;;;;;;17.39;52.94;;;;;
2023/06/27 19:09:38;;;;;;;4.7;2;;;;;;;17.02;54.75;;;;;
2023/06/27 19:19:36;;;;;;;4.7;2;;;;;;;16.7;56.25;;;;;
2023/06/27 19:29:36;;;;;;;7.4;2.5;;;;;;;16.38;58.55;;;;;
2023/06/27 19:39:36;;;;;;;7.4;2.5;;;;;;;16.14;61.11;;;;;
2023/06/27 19:49:36;;;;;;;7.4;2.5;;;;;;;15.84;61.49;;;;;
2023/06/27 19:59:36;;;;;;;7.8;3.6;;;;;;;15.55;63.04;;;;;
2023/06/27 20:10:36;;;;;;;7.8;3.6;;;;;;;15.29;63.99;;;;;
2023/06/27 20:21:36;;;;;;;7.8;3.6;;;;;;;14.98;64.51;;;;;
2023/06/27 20:31:36;;;;;;;7.4;2.9;;;;;;;14.7;65.33;;;;;
2023/06/27 20:41:36;;;;;;;7.4;2.9;;;;;;;14.59;65.83;;;;;
2023/06/27 20:52:36;;;;;;;7.4;2.9;;;;;;;14.31;65.66;;;;;
2023/06/27 21:03:37;;;;;;;5.7;2.3;;;;;;;13.92;67.38;;;;;
2023/06/27 21:13:36;;;;;;;5.7;2.3;;;;;;;13.57;68.45;;;;;
2023/06/27 21:23:36;;;;;;;5.7;2.3;;;;;;;13.52;70.41;;;;;
2023/06/27 21:34:36;;;;;;;7;2.8;;;;;;;13.49;70.83;;;;;
2023/06/27 21:44:36;;;;;;;7;2.8;;;;;;;13.43;71.95;;;;;
2023/06/27 21:55:36;;;;;;;7;2.8;;;;;;;13.35;72.85;;;;;
2023/06/27 22:06:36;;;;;;;4.6;2.3;;;;;;;13.28;73.04;;;;;
2023/06/27 22:17:36;;;;;;;4.6;2.3;;;;;;;13.26;72.88;;;;;
2023/06/27 22:28:36;;;;;;;4.6;2.3;;;;;;;13.19;72.73;;;;;
2023/06/27 22:38:36;;;;;;;7.1;2.2;;;;;;;13.09;73.27;;;;;
2023/06/27 22:48:36;;;;;;;7.1;2.2;;;;;;;12.97;74.26;;;;;
2023/06/27 22:59:36;;;;;;;2.7;1.2;;;;;;;12.83;74.58;;;;;
2023/06/27 23:09:36;;;;;;;2.7;1.2;;;;;;;12.71;74.86;;;;;
2023/06/27 23:19:36;;;;;;;2.7;1.2;;;;;;;12.46;76.28;;;;;
2023/06/27 23:29:36;;;;;;;2;1;;;;;;;12.2;77.94;;;;;
2023/06/27 23:39:36;;;;;;;2;1;;;;;;;12.22;77.14;;;;;
2023/06/27 23:50:36;;;;;;;2;1;;;;;;;12.11;78.19;;;;;
